createdAt,value
2018-09-24T00:00:18.621Z,1008.94
2018-09-24T00:01:28.535Z,1008.88
2018-09-24T00:02:38.227Z,1008.82
2018-09-24T00:03:48.168Z,1008.94
2018-09-24T00:04:58.110Z,1009.1
2018-09-24T00:06:08.060Z,1008.91
2018-09-24T00:07:17.756Z,1009.11
2018-09-24T00:08:27.695Z,1009.19
2018-09-24T00:09:37.658Z,1009.07
2018-09-24T00:10:47.332Z,1009.09
2018-09-24T00:11:57.288Z,1009.1
2018-09-24T00:13:07.246Z,1009.12
2018-09-24T00:14:17.194Z,1009.19
2018-09-24T00:15:27.138Z,1009.17
2018-09-24T00:16:37.073Z,1009.14
2018-09-24T00:17:47.021Z,1009.36
2018-09-24T00:18:56.722Z,1009.47
2018-09-24T00:20:06.426Z,1009.43
2018-09-24T00:21:16.365Z,1009.25
2018-09-24T00:22:26.378Z,1009.4
2018-09-24T00:23:35.814Z,1009.36
2018-09-24T00:24:45.758Z,1009.2
2018-09-24T00:25:55.706Z,1009.39
2018-09-24T00:27:05.652Z,1009.44
2018-09-24T00:28:15.603Z,1009.34
2018-09-24T00:29:25.535Z,1009.5
2018-09-24T00:30:35.507Z,1009.5
2018-09-24T00:31:45.448Z,1009.46
2018-09-24T00:32:55.413Z,1009.23
2018-09-24T00:34:05.103Z,1009.47
2018-09-24T00:35:15.097Z,1009.57
2018-09-24T00:36:24.779Z,1009.47
2018-09-24T00:37:34.707Z,1009.53
2018-09-24T00:38:44.673Z,1009.51
2018-09-24T00:39:54.626Z,1009.62
2018-09-24T00:41:04.590Z,1009.56
2018-09-24T00:42:14.641Z,1009.56
2018-09-24T00:43:24.335Z,1009.8
2018-09-24T00:44:34.422Z,1009.62
2018-09-24T00:45:44.109Z,1009.83
2018-09-24T00:46:54.046Z,1009.86
2018-09-24T00:48:03.988Z,1009.93
2018-09-24T00:49:13.921Z,1009.76
2018-09-24T00:50:23.618Z,1009.84
2018-09-24T00:51:33.579Z,1009.89
2018-09-24T00:52:43.261Z,1009.84
2018-09-24T00:53:53.194Z,1009.89
2018-09-24T00:55:03.144Z,1010.02
2018-09-24T00:56:12.573Z,1010
2018-09-24T00:57:22.518Z,1009.96
2018-09-24T00:58:32.467Z,1009.86
2018-09-24T00:59:42.159Z,1009.95
2018-09-24T01:00:52.158Z,1010.15
2018-09-24T01:02:01.853Z,1010.1
2018-09-24T01:03:11.797Z,1009.97
2018-09-24T01:04:21.741Z,1010.04
2018-09-24T01:05:31.442Z,1010
2018-09-24T01:06:41.385Z,1010.24
2018-09-24T01:07:51.317Z,1009.97
2018-09-24T01:09:01.003Z,1010.23
2018-09-24T01:10:10.974Z,1010.15
2018-09-24T01:11:20.908Z,1010.28
2018-09-24T01:12:30.848Z,1010.28
2018-09-24T01:13:40.775Z,1010.31
2018-09-24T01:14:50.944Z,1010.28
2018-09-24T01:16:00.626Z,1010.39
2018-09-24T01:17:10.564Z,1010.33
2018-09-24T01:18:20.511Z,1010.49
2018-09-24T01:19:30.469Z,1010.47
2018-09-24T01:20:40.400Z,1010.47
2018-09-24T01:21:50.333Z,1010.56
2018-09-24T01:23:00.294Z,1010.68
2018-09-24T01:24:10.227Z,1010.49
2018-09-24T01:25:19.657Z,1010.69
2018-09-24T01:26:29.334Z,1010.6
2018-09-24T01:27:39.272Z,1010.62
2018-09-24T01:28:49.207Z,1010.64
2018-09-24T01:29:59.167Z,1010.77
2018-09-24T01:31:08.848Z,1010.67
2018-09-24T01:32:18.542Z,1010.74
2018-09-24T01:33:28.496Z,1010.76
2018-09-24T01:34:38.497Z,1011.06
2018-09-24T01:35:48.189Z,1010.88
2018-09-24T01:36:58.288Z,1010.97
2018-09-24T01:38:08.233Z,1010.86
2018-09-24T01:39:18.175Z,1011.03
2018-09-24T01:40:28.125Z,1010.81
2018-09-24T01:41:38.072Z,1011.07
2018-09-24T01:42:47.502Z,1010.99
2018-09-24T01:43:57.436Z,1010.96
2018-09-24T01:45:07.378Z,1011.03
2018-09-24T01:46:17.078Z,1010.99
2018-09-24T01:47:27.018Z,1011.09
2018-09-24T01:48:36.976Z,1011.17
2018-09-24T01:49:46.673Z,1011.14
2018-09-24T01:50:56.601Z,1011.18
2018-09-24T01:52:06.547Z,1011.22
2018-09-24T01:53:16.231Z,1011.23
2018-09-24T01:54:25.923Z,1011.42
2018-09-24T01:55:35.870Z,1011.32
2018-09-24T01:56:45.566Z,1011.29
2018-09-24T01:57:55.530Z,1011.35
2018-09-24T01:59:05.500Z,1011.35
2018-09-24T02:00:15.448Z,1011.36
2018-09-24T02:01:25.395Z,1011.26
2018-09-24T02:02:35.331Z,1011.41
2018-09-24T02:03:45.273Z,1011.43
2018-09-24T02:04:55.211Z,1011.38
2018-09-24T02:06:04.892Z,1011.39
2018-09-24T02:07:14.836Z,1011.4
2018-09-24T02:08:24.527Z,1011.43
2018-09-24T02:09:34.541Z,1011.4
2018-09-24T02:10:44.483Z,1011.47
2018-09-24T02:11:54.429Z,1011.41
2018-09-24T02:13:04.381Z,1011.51
2018-09-24T02:14:14.317Z,1011.45
2018-09-24T02:15:24.264Z,1011.46
2018-09-24T02:16:33.932Z,1011.72
2018-09-24T02:17:43.609Z,1011.65
2018-09-24T02:18:53.561Z,1011.62
2018-09-24T02:20:03.500Z,1011.62
2018-09-24T02:21:13.176Z,1011.69
2018-09-24T02:22:23.115Z,1011.74
2018-09-24T02:23:33.063Z,1011.6
2018-09-24T02:24:43.014Z,1011.66
2018-09-24T02:25:52.964Z,1011.72
2018-09-24T02:27:02.654Z,1011.94
2018-09-24T02:28:12.613Z,1011.8
2018-09-24T02:29:22.289Z,1011.88
2018-09-24T02:30:31.716Z,1011.76
2018-09-24T02:31:41.436Z,1011.84
2018-09-24T02:32:51.403Z,1011.97
2018-09-24T02:34:01.093Z,1011.93
2018-09-24T02:35:11.061Z,1012.12
2018-09-24T02:36:21.004Z,1012.03
2018-09-24T02:37:30.695Z,1011.93
2018-09-24T02:38:40.128Z,1011.94
2018-09-24T02:39:50.088Z,1012.06
2018-09-24T02:41:00.025Z,1012.02
2018-09-24T02:42:09.968Z,1012.06
2018-09-24T02:43:19.908Z,1012.02
2018-09-24T02:44:29.608Z,1012.04
2018-09-24T02:45:39.548Z,1012.15
2018-09-24T02:46:49.242Z,1012.08
2018-09-24T02:47:59.184Z,1012.34
2018-09-24T02:49:08.882Z,1012.13
2018-09-24T02:50:18.576Z,1012.1
2018-09-24T02:51:28.274Z,1012.09
2018-09-24T02:52:37.701Z,1012.14
2018-09-24T02:53:47.125Z,1012.16
2018-09-24T02:54:56.818Z,1012.31
2018-09-24T02:56:06.760Z,1012.13
2018-09-24T02:57:16.700Z,1012.32
2018-09-24T02:58:26.135Z,1012.28
2018-09-24T02:59:35.834Z,1012.26
2018-09-24T03:00:45.793Z,1012.3
2018-09-24T03:01:55.745Z,1012.11
2018-09-24T03:03:05.701Z,1012.26
2018-09-24T03:04:15.650Z,1012.28
2018-09-24T03:05:25.596Z,1012.38
2018-09-24T03:06:35.545Z,1012.26
2018-09-24T03:07:45.480Z,1012.26
2018-09-24T03:08:55.426Z,1012.47
2018-09-24T03:10:05.373Z,1012.41
2018-09-24T03:11:15.316Z,1012.42
2018-09-24T03:12:25.011Z,1012.41
2018-09-24T03:13:34.707Z,1012.54
2018-09-24T03:14:44.641Z,1012.37
2018-09-24T03:15:54.592Z,1012.35
2018-09-24T03:17:04.544Z,1012.47
2018-09-24T03:18:14.485Z,1012.64
2018-09-24T03:19:24.192Z,1012.44
2018-09-24T03:20:34.128Z,1012.52
2018-09-24T03:21:44.085Z,1012.46
2018-09-24T03:22:54.032Z,1012.72
2018-09-24T03:24:03.737Z,1012.45
2018-09-24T03:25:13.701Z,1012.47
2018-09-24T03:26:23.455Z,1012.53
2018-09-24T03:27:33.930Z,1012.56
2018-09-24T03:28:43.890Z,1012.61
2018-09-24T03:29:53.888Z,1012.57
2018-09-24T03:31:03.588Z,1012.69
2018-09-24T03:32:13.274Z,1012.65
2018-09-24T03:33:23.227Z,1012.58
2018-09-24T03:34:33.171Z,1012.53
2018-09-24T03:35:43.134Z,1012.62
2018-09-24T03:36:53.080Z,1012.74
2018-09-24T03:38:02.786Z,1012.77
2018-09-24T03:39:12.733Z,1012.7
2018-09-24T03:40:22.689Z,1012.69
2018-09-24T03:41:32.648Z,1012.66
2018-09-24T03:42:42.400Z,1012.63
2018-09-24T03:43:52.086Z,1012.75
2018-09-24T03:45:02.039Z,1012.81
2018-09-24T03:46:12.008Z,1012.77
2018-09-24T03:47:21.974Z,1012.75
2018-09-24T03:48:31.916Z,1012.71
2018-09-24T03:49:41.623Z,1012.8
2018-09-24T03:50:51.590Z,1012.7
2018-09-24T03:52:01.535Z,1013.21
2018-09-24T03:53:11.472Z,1012.89
2018-09-24T03:54:21.157Z,1012.8
2018-09-24T03:55:30.834Z,1012.88
2018-09-24T03:56:40.773Z,1012.76
2018-09-24T03:57:50.718Z,1013.04
2018-09-24T03:59:00.710Z,1012.91
2018-09-24T04:00:11.107Z,1012.89
2018-09-24T04:01:20.814Z,1013.21
2018-09-24T04:02:30.751Z,1012.86
2018-09-24T04:03:40.678Z,1012.87
2018-09-24T04:04:50.102Z,1012.89
2018-09-24T04:06:00.057Z,1012.84
2018-09-24T04:07:10.016Z,1012.91
2018-09-24T04:08:19.973Z,1013.16
2018-09-24T04:09:29.700Z,1013.01
2018-09-24T04:10:40.013Z,1013.14
2018-09-24T04:11:49.958Z,1013.25
2018-09-24T04:12:59.905Z,1013.07
2018-09-24T04:14:09.860Z,1013.01
2018-09-24T04:15:19.555Z,1013.02
2018-09-24T04:16:29.498Z,1013.18
2018-09-24T04:17:39.178Z,1013.26
2018-09-24T04:18:49.133Z,1013.31
2018-09-24T04:19:59.096Z,1013.39
2018-09-24T04:21:08.820Z,1013.22
2018-09-24T04:22:18.775Z,1013.34
2018-09-24T04:23:28.464Z,1013.21
2018-09-24T04:24:38.423Z,1013.27
2018-09-24T04:25:48.382Z,1013.27
2018-09-24T04:26:58.331Z,1013.41
2018-09-24T04:28:08.287Z,1013.26
2018-09-24T04:29:17.991Z,1013.43
2018-09-24T04:30:27.952Z,1013.39
2018-09-24T04:31:37.897Z,1013.33
2018-09-24T04:32:47.846Z,1013.41
2018-09-24T04:33:57.817Z,1013.56
2018-09-24T04:35:07.771Z,1013.34
2018-09-24T04:36:17.464Z,1013.29
2018-09-24T04:37:27.436Z,1013.3
2018-09-24T04:38:37.386Z,1013.4
2018-09-24T04:39:47.357Z,1013.71
2018-09-24T04:40:57.328Z,1013.35
2018-09-24T04:42:07.339Z,1013.4
2018-09-24T04:43:17.295Z,1013.48
2018-09-24T04:44:27.256Z,1013.4
2018-09-24T04:45:37.223Z,1013.5
2018-09-24T04:46:47.172Z,1013.37
2018-09-24T04:47:57.131Z,1013.46
2018-09-24T04:49:07.116Z,1013.66
2018-09-24T04:50:17.551Z,1013.5
2018-09-24T04:51:27.507Z,1013.48
2018-09-24T04:52:37.458Z,1013.55
2018-09-24T04:53:47.419Z,1013.56
2018-09-24T04:54:57.405Z,1013.64
2018-09-24T04:56:07.361Z,1013.55
2018-09-24T04:57:17.341Z,1013.65
2018-09-24T04:58:27.322Z,1013.6
2018-09-24T04:59:37.099Z,1013.58
2018-09-24T05:00:47.042Z,1013.72
2018-09-24T05:01:56.745Z,1013.63
2018-09-24T05:03:06.716Z,1013.63
2018-09-24T05:04:16.674Z,1013.72
2018-09-24T05:05:26.361Z,1013.65
2018-09-24T05:06:36.337Z,1013.61
2018-09-24T05:07:46.289Z,1013.66
2018-09-24T05:08:56.224Z,1013.66
2018-09-24T05:10:05.969Z,1013.95
2018-09-24T05:11:16.239Z,1013.65
2018-09-24T05:12:26.198Z,1013.74
2018-09-24T05:13:36.145Z,1013.82
2018-09-24T05:14:46.099Z,1013.69
2018-09-24T05:15:56.045Z,1013.8
2018-09-24T05:17:06.201Z,1013.75
2018-09-24T05:18:16.149Z,1013.85
2018-09-24T05:19:26.101Z,1013.88
2018-09-24T05:20:35.783Z,1013.76
2018-09-24T05:21:45.726Z,1013.83
2018-09-24T05:22:55.678Z,1013.86
2018-09-24T05:24:05.644Z,1013.97
2018-09-24T05:25:15.600Z,1013.9
2018-09-24T05:26:25.555Z,1013.96
2018-09-24T05:27:35.250Z,1013.98
2018-09-24T05:28:45.206Z,1013.92
2018-09-24T05:29:55.154Z,1013.95
2018-09-24T05:31:04.859Z,1014
2018-09-24T05:32:14.609Z,1014.09
2018-09-24T05:33:25.023Z,1014.2
2018-09-24T05:34:34.788Z,1014.16
2018-09-24T05:35:44.643Z,1014.1
2018-09-24T05:36:54.340Z,1014.17
2018-09-24T05:38:04.338Z,1014.13
2018-09-24T05:39:14.319Z,1014.08
2018-09-24T05:40:24.284Z,1014.13
2018-09-24T05:41:34.255Z,1014.22
2018-09-24T05:42:44.219Z,1014.04
2018-09-24T05:43:54.245Z,1014.26
2018-09-24T05:45:03.692Z,1014.16
2018-09-24T05:46:13.408Z,1014.15
2018-09-24T05:47:23.379Z,1014.15
2018-09-24T05:48:33.350Z,1014.06
2018-09-24T05:49:43.355Z,1014.26
2018-09-24T05:50:53.296Z,1014.15
2018-09-24T05:52:03.008Z,1014.23
2018-09-24T05:53:12.965Z,1014.19
2018-09-24T05:54:22.449Z,1014.19
2018-09-24T05:55:32.690Z,1014.22
2018-09-24T05:56:42.387Z,1014.27
2018-09-24T05:57:52.341Z,1014.23
2018-09-24T05:59:02.297Z,1014.59
2018-09-24T06:00:12.008Z,1014.43
2018-09-24T06:01:21.966Z,1014.44
2018-09-24T06:02:31.681Z,1014.59
2018-09-24T06:03:41.108Z,1014.45
2018-09-24T06:04:51.086Z,1014.48
2018-09-24T06:06:01.043Z,1014.48
2018-09-24T06:07:10.769Z,1014.51
2018-09-24T06:08:20.719Z,1014.86
2018-09-24T06:09:30.669Z,1014.51
2018-09-24T06:10:40.634Z,1014.51
2018-09-24T06:11:50.323Z,1014.47
2018-09-24T06:13:00.282Z,1014.7
2018-09-24T06:14:10.234Z,1014.5
2018-09-24T06:15:20.176Z,1014.51
2018-09-24T06:16:29.859Z,1014.5
2018-09-24T06:17:39.565Z,1014.63
2018-09-24T06:18:49.552Z,1014.91
2018-09-24T06:19:59.187Z,1014.75
2018-09-24T06:21:09.177Z,1014.82
2018-09-24T06:22:19.175Z,1014.76
2018-09-24T06:23:29.143Z,1014.75
2018-09-24T06:24:39.118Z,1014.73
2018-09-24T06:25:49.092Z,1014.98
2018-09-24T06:26:59.056Z,1014.68
2018-09-24T06:28:09.003Z,1014.82
2018-09-24T06:29:19.106Z,1015.03
2018-09-24T06:30:29.075Z,1014.85
2018-09-24T06:31:39.038Z,1014.95
2018-09-24T06:32:48.998Z,1014.87
2018-09-24T06:33:58.947Z,1015.23
2018-09-24T06:35:08.987Z,1015.05
2018-09-24T06:36:18.938Z,1015.19
2018-09-24T06:37:28.905Z,1015.16
2018-09-24T06:38:38.600Z,1015.19
2018-09-24T06:39:48.550Z,1015.46
2018-09-24T06:40:58.598Z,1015.19
2018-09-24T06:42:08.805Z,1015.32
2018-09-24T06:43:18.781Z,1015.19
2018-09-24T06:44:28.479Z,1015.1
2018-09-24T06:45:38.511Z,1015.16
2018-09-24T06:46:48.210Z,1015.09
2018-09-24T06:47:57.908Z,1015.14
2018-09-24T06:49:07.837Z,1015.12
2018-09-24T06:50:17.788Z,1015.41
2018-09-24T06:51:27.806Z,1015.24
2018-09-24T06:52:37.509Z,1015.12
2018-09-24T06:53:47.491Z,1015.15
2018-09-24T06:54:57.189Z,1015.13
2018-09-24T06:56:06.909Z,1015.28
2018-09-24T06:57:16.334Z,1015.34
2018-09-24T06:58:26.316Z,1015.27
2018-09-24T06:59:36.415Z,1015.96
2018-09-24T07:00:46.724Z,1015.22
2018-09-24T07:01:56.712Z,1015.34
2018-09-24T07:03:06.671Z,1015.29
2018-09-24T07:04:16.368Z,1015.32
2018-09-24T07:05:26.365Z,1015.49
2018-09-24T07:06:36.505Z,1015.63
2018-09-24T07:07:46.461Z,1015.78
2018-09-24T07:08:56.425Z,1015.71
2018-09-24T07:10:06.370Z,1015.6
2018-09-24T07:11:16.396Z,1015.54
2018-09-24T07:12:26.073Z,1015.83
2018-09-24T07:13:36.021Z,1015.62
2018-09-24T07:14:45.739Z,1015.72
2018-09-24T07:15:55.728Z,1015.7
2018-09-24T07:17:05.468Z,1015.6
2018-09-24T07:18:15.179Z,1015.69
2018-09-24T07:19:24.897Z,1015.82
2018-09-24T07:20:34.848Z,1015.79
2018-09-24T07:21:44.547Z,1015.71
2018-09-24T07:22:54.515Z,1015.79
2018-09-24T07:24:04.253Z,1015.77
2018-09-24T07:25:13.961Z,1016.02
2018-09-24T07:26:23.914Z,1015.89
2018-09-24T07:27:33.650Z,1015.9
2018-09-24T07:28:43.944Z,1015.96
2018-09-24T07:29:53.902Z,1015.91
2018-09-24T07:31:03.867Z,1016.31
2018-09-24T07:32:13.899Z,1016.04
2018-09-24T07:33:23.970Z,1016.05
2018-09-24T07:34:34.010Z,1015.95
2018-09-24T07:35:43.706Z,1015.97
2018-09-24T07:36:53.662Z,1016.16
2018-09-24T07:38:03.646Z,1015.96
2018-09-24T07:39:13.612Z,1016.11
2018-09-24T07:40:23.605Z,1016.05
2018-09-24T07:41:33.561Z,1015.95
2018-09-24T07:42:43.538Z,1015.94
2018-09-24T07:43:53.281Z,1015.95
2018-09-24T07:45:03.296Z,1015.89
2018-09-24T07:46:13.282Z,1016.11
2018-09-24T07:47:23.238Z,1016.45
2018-09-24T07:48:33.317Z,1016.3
2018-09-24T07:49:43.274Z,1016.15
2018-09-24T07:50:52.993Z,1016.3
2018-09-24T07:52:02.703Z,1016.24
2018-09-24T07:53:11.866Z,1016.05
2018-09-24T07:54:21.821Z,1016.18
2018-09-24T07:55:31.806Z,1016.37
2018-09-24T07:56:42.346Z,1016.18
2018-09-24T07:57:52.346Z,1016.21
2018-09-24T07:59:02.082Z,1016.3
2018-09-24T08:00:11.786Z,1016.28
2018-09-24T08:01:21.750Z,1016.44
2018-09-24T08:02:31.714Z,1016.47
2018-09-24T08:03:41.419Z,1016.72
2018-09-24T08:04:51.401Z,1016.37
2018-09-24T08:06:01.353Z,1016.36
2018-09-24T08:07:11.095Z,1016.52
2018-09-24T08:08:21.228Z,1016.42
2018-09-24T08:09:31.194Z,1016.43
2018-09-24T08:10:41.139Z,1016.43
2018-09-24T08:11:51.095Z,1016.58
2018-09-24T08:13:01.157Z,1016.67
2018-09-24T08:14:11.453Z,1016.76
2018-09-24T08:15:21.418Z,1016.57
2018-09-24T08:16:31.376Z,1016.73
2018-09-24T08:17:41.311Z,1016.62
2018-09-24T08:18:51.263Z,1016.7
2018-09-24T08:20:00.993Z,1016.58
2018-09-24T08:21:11.029Z,1016.91
2018-09-24T08:22:21.260Z,1016.65
2018-09-24T08:23:31.226Z,1016.68
2018-09-24T08:24:41.177Z,1016.79
2018-09-24T08:25:51.147Z,1016.66
2018-09-24T08:27:01.116Z,1016.97
2018-09-24T08:28:11.081Z,1016.8
2018-09-24T08:29:20.791Z,1016.78
2018-09-24T08:30:30.492Z,1016.76
2018-09-24T08:31:40.448Z,1017.07
2018-09-24T08:32:50.146Z,1016.92
2018-09-24T08:34:00.112Z,1016.76
2018-09-24T08:35:09.824Z,1016.86
2018-09-24T08:36:20.138Z,1016.94
2018-09-24T08:37:30.315Z,1016.99
2018-09-24T08:38:40.282Z,1017
2018-09-24T08:39:50.254Z,1016.93
2018-09-24T08:41:00.216Z,1016.99
2018-09-24T08:42:09.971Z,1017.07
2018-09-24T08:43:19.944Z,1016.86
2018-09-24T08:44:29.647Z,1017.32
2018-09-24T08:45:39.634Z,1017.04
2018-09-24T08:46:49.596Z,1016.95
2018-09-24T08:47:59.296Z,1017
2018-09-24T08:49:09.256Z,1017.03
2018-09-24T08:50:18.957Z,1017.01
2018-09-24T08:51:28.398Z,1017.06
2018-09-24T08:52:38.359Z,1017.1
2018-09-24T08:53:48.342Z,1017.19
2018-09-24T08:54:58.307Z,1017.19
2018-09-24T08:56:08.047Z,1017.35
2018-09-24T08:57:18.096Z,1017.11
2018-09-24T08:58:28.396Z,1017.2
2018-09-24T08:59:38.360Z,1017.24
2018-09-24T09:00:48.353Z,1017.25
2018-09-24T09:01:58.314Z,1017.21
2018-09-24T09:03:08.263Z,1017.3
2018-09-24T09:04:17.991Z,1017.23
2018-09-24T09:05:27.954Z,1017.35
2018-09-24T09:06:38.171Z,1017.86
2018-09-24T09:07:48.137Z,1017.28
2018-09-24T09:08:57.853Z,1017.64
2018-09-24T09:10:07.570Z,1017.51
2018-09-24T09:11:17.599Z,1017.26
2018-09-24T09:12:27.596Z,1017.76
2018-09-24T09:13:37.295Z,1017.57
2018-09-24T09:14:47.289Z,1017.37
2018-09-24T09:15:56.960Z,1017.4
2018-09-24T09:17:06.921Z,1017.48
2018-09-24T09:18:16.871Z,1017.42
2018-09-24T09:19:26.838Z,1017.26
2018-09-24T09:20:36.785Z,1017.65
2018-09-24T09:21:46.750Z,1017.38
2018-09-24T09:22:56.707Z,1017.5
2018-09-24T09:24:06.942Z,1017.61
2018-09-24T09:25:17.122Z,1017.5
2018-09-24T09:26:27.125Z,1017.47
2018-09-24T09:27:37.087Z,1017.79
2018-09-24T09:28:47.042Z,1017.64
2018-09-24T09:29:57.001Z,1017.62
2018-09-24T09:31:06.971Z,1017.72
2018-09-24T09:32:16.981Z,1017.66
2018-09-24T09:33:26.935Z,1017.77
2018-09-24T09:34:36.648Z,1017.51
2018-09-24T09:35:46.342Z,1017.65
2018-09-24T09:36:55.821Z,1017.62
2018-09-24T09:38:05.864Z,1017.64
2018-09-24T09:39:15.855Z,1017.72
2018-09-24T09:40:25.309Z,1017.87
2018-09-24T09:41:34.782Z,1017.9
2018-09-24T09:42:44.757Z,1017.82
2018-09-24T09:43:54.722Z,1017.81
2018-09-24T09:45:04.715Z,1017.51
2018-09-24T09:46:14.682Z,1017.77
2018-09-24T09:47:24.643Z,1017.79
2018-09-24T09:48:34.626Z,1017.66
2018-09-24T09:49:44.081Z,1018.07
2018-09-24T09:50:54.045Z,1017.98
2018-09-24T09:52:03.782Z,1018.02
2018-09-24T09:53:13.497Z,1017.84
2018-09-24T09:54:23.212Z,1017.88
2018-09-24T09:55:32.944Z,1018.12
2018-09-24T09:56:42.900Z,1018
2018-09-24T09:57:52.869Z,1017.94
2018-09-24T09:59:02.839Z,1018.11
2018-09-24T10:00:13.106Z,1017.76
2018-09-24T10:01:22.816Z,1017.99
2018-09-24T10:02:32.784Z,1018.07
2018-09-24T10:03:42.754Z,1018.24
2018-09-24T10:04:52.838Z,1018.1
2018-09-24T10:06:02.877Z,1017.9
2018-09-24T10:07:12.856Z,1018.14
2018-09-24T10:08:22.800Z,1018.13
2018-09-24T10:09:32.999Z,1018.03
2018-09-24T10:10:42.714Z,1018.14
2018-09-24T10:11:52.709Z,1018.26
2018-09-24T10:13:02.687Z,1018.02
2018-09-24T10:14:12.643Z,1017.82
2018-09-24T10:15:22.635Z,1017.95
2018-09-24T10:16:32.084Z,1017.98
2018-09-24T10:17:41.789Z,1018.15
2018-09-24T10:18:51.757Z,1018.01
2018-09-24T10:20:01.189Z,1018.03
2018-09-24T10:21:11.159Z,1017.98
2018-09-24T10:22:21.119Z,1018.01
2018-09-24T10:23:30.896Z,1018.04
2018-09-24T10:24:40.081Z,1018.03
2018-09-24T10:25:49.809Z,1018.09
2018-09-24T10:26:59.782Z,1018.01
2018-09-24T10:28:09.730Z,1018.42
2018-09-24T10:29:19.696Z,1018.07
2018-09-24T10:30:29.643Z,1018.21
2018-09-24T10:31:39.336Z,1018.13
2018-09-24T10:32:49.039Z,1018.19
2018-09-24T10:33:58.991Z,1018.3
2018-09-24T10:35:08.954Z,1018.24
2018-09-24T10:36:18.685Z,1018.16
2018-09-24T10:37:28.385Z,1018.11
2018-09-24T10:38:38.399Z,1018.3
2018-09-24T10:39:48.442Z,1018.55
2018-09-24T10:40:57.795Z,1018.47
2018-09-24T10:42:07.244Z,1018.3
2018-09-24T10:43:16.963Z,1018.53
2018-09-24T10:44:26.960Z,1018.32
2018-09-24T10:45:36.930Z,1018.21
2018-09-24T10:46:46.839Z,1018.34
2018-09-24T10:47:56.558Z,1018.29
2018-09-24T10:49:06.523Z,1018.33
2018-09-24T10:50:16.735Z,1018.41
2018-09-24T10:51:26.748Z,1018.35
2018-09-24T10:52:36.722Z,1018.28
2018-09-24T10:53:46.693Z,1018.27
2018-09-24T10:54:56.723Z,1018.33
2018-09-24T10:56:07.046Z,1018.31
2018-09-24T10:57:17.027Z,1018.25
2018-09-24T10:58:26.743Z,1018.77
2018-09-24T10:59:36.532Z,1018.31
2018-09-24T11:00:46.717Z,1018.56
2018-09-24T11:01:56.890Z,1018.31
2018-09-24T11:03:06.611Z,1018.52
2018-09-24T11:04:16.316Z,1018.59
2018-09-24T11:05:26.291Z,1018.3
2018-09-24T11:06:36.254Z,1018.71
2018-09-24T11:07:46.205Z,1018.34
2018-09-24T11:08:56.163Z,1018.51
2018-09-24T11:10:06.134Z,1018.01
2018-09-24T11:11:16.333Z,1018.56
2018-09-24T11:12:26.029Z,1018.67
2018-09-24T11:13:35.997Z,1018.58
2018-09-24T11:14:45.982Z,1018.89
2018-09-24T11:15:55.846Z,1018.47
2018-09-24T11:17:06.633Z,1018.4
2018-09-24T11:18:18.799Z,1018.42
2018-09-24T11:19:28.764Z,1018.53
2018-09-24T11:20:38.853Z,1018.71
2018-09-24T11:21:48.812Z,1018.27
2018-09-24T11:22:58.522Z,1018.31
2018-09-24T11:24:08.053Z,1018.27
2018-09-24T11:25:18.078Z,1018.41
2018-09-24T11:27:37.810Z,1018.57
2018-09-24T11:28:47.507Z,1018.48
2018-09-24T11:29:57.516Z,1018.62
2018-09-24T11:31:07.472Z,1018.92
2018-09-24T11:32:17.466Z,1018.56
2018-09-24T11:33:27.430Z,1018.47
2018-09-24T11:34:37.451Z,1018.66
2018-09-24T11:35:47.432Z,1018.59
2018-09-24T11:36:57.129Z,1018.75
2018-09-24T11:38:07.073Z,1018.59
2018-09-24T11:39:16.538Z,1019.03
2018-09-24T11:40:26.497Z,1018.7
2018-09-24T11:41:36.272Z,1018.62
2018-09-24T11:42:46.227Z,1018.86
2018-09-24T11:43:56.206Z,1018.51
2018-09-24T11:45:06.157Z,1018.63
2018-09-24T11:46:15.869Z,1018.78
2018-09-24T11:47:25.944Z,1018.55
2018-09-24T11:48:35.911Z,1018.45
2018-09-24T11:49:45.624Z,1018.64
2018-09-24T11:50:55.572Z,1018.88
2018-09-24T11:52:05.529Z,1018.91
2018-09-24T11:53:15.494Z,1019.03
2018-09-24T11:54:25.683Z,1018.86
2018-09-24T11:55:35.688Z,1018.74
2018-09-24T11:56:45.656Z,1019.27
2018-09-24T11:57:55.596Z,1019.13
2018-09-24T11:59:05.559Z,1018.78
2018-09-24T12:00:15.527Z,1018.81
2018-09-24T12:01:25.503Z,1018.91
2018-09-24T12:02:34.693Z,1018.84
2018-09-24T12:03:44.637Z,1018.92
2018-09-24T12:04:54.342Z,1019
2018-09-24T12:06:04.312Z,1019.02
2018-09-24T12:07:14.303Z,1019.11
2018-09-24T12:08:24.001Z,1019.07
2018-09-24T12:09:33.470Z,1018.97
2018-09-24T12:10:43.417Z,1018.96
2018-09-24T12:11:53.365Z,1019.1
2018-09-24T12:13:03.323Z,1018.91
2018-09-24T12:14:13.043Z,1018.9
2018-09-24T12:15:22.987Z,1018.9
2018-09-24T12:16:32.674Z,1019
2018-09-24T12:17:42.110Z,1018.96
2018-09-24T12:18:52.063Z,1018.98
2018-09-24T12:20:01.760Z,1018.89
2018-09-24T12:21:11.708Z,1019
2018-09-24T12:22:21.842Z,1019.11
2018-09-24T12:23:31.790Z,1019.07
2018-09-24T12:24:41.495Z,1019.08
2018-09-24T12:25:51.456Z,1019.14
2018-09-24T12:27:01.425Z,1019.19
2018-09-24T12:28:11.393Z,1019.38
2018-09-24T12:29:21.093Z,1019.35
2018-09-24T12:30:30.790Z,1019.35
2018-09-24T12:31:40.776Z,1019.41
2018-09-24T12:32:50.729Z,1019.54
2018-09-24T12:34:00.711Z,1019.7
2018-09-24T12:35:10.159Z,1019.68
2018-09-24T12:36:20.108Z,1019.62
2018-09-24T12:37:30.083Z,1019.55
2018-09-24T12:38:39.847Z,1019.72
2018-09-24T12:39:49.807Z,1019.57
2018-09-24T12:40:59.751Z,1019.76
2018-09-24T12:42:09.457Z,1019.94
2018-09-24T12:43:19.410Z,1019.36
2018-09-24T12:44:29.362Z,1019.99
2018-09-24T12:45:39.331Z,1019.93
2018-09-24T12:46:49.288Z,1019.99
2018-09-24T12:47:59.033Z,1019.98
2018-09-24T12:49:09.302Z,1019.92
2018-09-24T12:50:19.287Z,1019.9
2018-09-24T12:51:28.993Z,1019.88
2018-09-24T12:52:39.190Z,1019.85
2018-09-24T12:53:49.218Z,1019.77
2018-09-24T12:54:59.061Z,1019.6
2018-09-24T12:56:09.025Z,1019.56
2018-09-24T12:57:18.983Z,1019.53
2018-09-24T12:58:28.937Z,1019.47
2018-09-24T12:59:38.640Z,1019.43
2018-09-24T13:00:48.597Z,1019.42
2018-09-24T13:01:58.551Z,1019.42
2018-09-24T13:03:08.511Z,1019.44
2018-09-24T13:04:18.232Z,1019.45
2018-09-24T13:05:27.924Z,1019.44
2018-09-24T13:06:37.909Z,1019.5
2018-09-24T13:07:47.872Z,1019.51
2018-09-24T13:08:57.828Z,1019.5
2018-09-24T13:10:07.775Z,1019.53
2018-09-24T13:11:17.764Z,1019.55
2018-09-24T13:12:27.735Z,1019.56
2018-09-24T13:13:37.165Z,1019.55
2018-09-24T13:14:46.867Z,1019.58
2018-09-24T13:15:56.806Z,1019.57
2018-09-24T13:17:06.776Z,1019.57
2018-09-24T13:18:16.206Z,1019.57
2018-09-24T13:19:25.905Z,1019.58
2018-09-24T13:20:35.967Z,1019.58
2018-09-24T13:21:45.939Z,1019.59
2018-09-24T13:22:55.911Z,1019.55
2018-09-24T13:24:05.373Z,1019.58
2018-09-24T13:25:15.337Z,1019.56
2018-09-24T13:26:25.359Z,1019.5
2018-09-24T13:27:35.346Z,1019.56
2018-09-24T13:28:45.338Z,1019.59
2018-09-24T13:29:55.077Z,1019.49
2018-09-24T13:31:05.015Z,1019.5
2018-09-24T13:32:14.485Z,1019.54
2018-09-24T13:33:24.445Z,1019.57
2018-09-24T13:34:34.424Z,1019.52
2018-09-24T13:35:44.395Z,1019.6
2018-09-24T13:36:54.101Z,1019.63
2018-09-24T13:38:03.797Z,1019.62
2018-09-24T13:39:13.507Z,1019.57
2018-09-24T13:40:23.252Z,1019.75
2018-09-24T13:41:33.228Z,1019.69
2018-09-24T13:42:43.220Z,1019.89
2018-09-24T13:43:53.198Z,1019.69
2018-09-24T13:45:03.147Z,1019.95
2018-09-24T13:46:12.901Z,1019.82
2018-09-24T13:47:22.857Z,1019.61
2018-09-24T13:48:32.556Z,1019.55
2018-09-24T13:49:42.529Z,1019.54
2018-09-24T13:50:52.216Z,1019.46
2018-09-24T13:52:01.917Z,1019.5
2018-09-24T13:53:11.875Z,1019.43
2018-09-24T13:54:22.131Z,1019.51
2018-09-24T13:55:32.087Z,1019.5
2018-09-24T13:56:41.894Z,1019.48
2018-09-24T13:57:51.593Z,1019.5
2018-09-24T13:59:01.291Z,1019.52
2018-09-24T14:00:11.242Z,1019.49
2018-09-24T14:01:20.968Z,1019.46
2018-09-24T14:02:30.684Z,1019.42
2018-09-24T14:03:40.386Z,1019.38
2018-09-24T14:04:50.350Z,1019.42
2018-09-24T14:06:00.301Z,1019.49
2018-09-24T14:07:10.241Z,1019.42
2018-09-24T14:08:20.188Z,1019.49
2018-09-24T14:09:30.157Z,1019.47